YXK weather

Rimouski Airport
Rimouski, Quebec, Canada

Public forecast

Using degrees Celsius for public forecast. Weather courtesy of forecast.io.

Closest aviation weather report (METAR) to Rimouski Airport

Closest report is Mont Joli Airport, 13.9 nm (25.7 km) NE. Retrieved 2020/01/23 07:00 UTC (18 minutes ago):

CYYY 230700Z 21013G19KT 10SM -SN OVC045 M02/M05 A3008 RMK SC8 SLP192

Closest aviation forecast (TAF) to Rimouski Airport

Closest forecast is Mont Joli Airport, 13.9 nm (25.7 km) NE. Retrieved 2020/01/23 08:00 UTC (0 seconds ago):

TAF CYYY 230738Z 2308/2320 21012G22KT P6SM -SN OVC040 TEMPO 2308/2312 21/2SM -SN OVC020 FM231200 22012G22KT P6SM FEW015 BKN040 TEMPO 2312/2320 5SM -SN BKN015 RMK NXT FCST BY 231400Z